Strona główna
METAR-TAF:

METAR-TAF

Lotnisko :

Cannes, Francja

Szerokość geograficzna: 43-33N, Długość geograficzna: 006-57E, wysokość: 3 m

Aktualna obserwacja pogody

Raport powstał 40 minut temu, godzina 10:30 UTC
Wiatr 7 kt od południowo-południowy zachód, zmienny między południe i zachodnio-południowy zachód
Temperatura 16°C
Wilgotność 55%
Ciśnienie 1024 hPa
Widzialność 10 km lub więcej
Brak chmur poniżej 1500 m i brak chmur cumulonimbus

METAR: LFMD 181030Z AUTO 21007KT 190V250 CAVOK 16/07 Q1024 TEMPO 09010KT

czas: 12:10 (11:10 UTC)

Prognoza

Raport powstał 3 godziny i 10 minut temu, godzina 08:00 UTC
Prognoza ważna od 18 godzina 09 UTC do 19 godzina 09 UTC
Wiatr 2 kt z kierunków zmiennych
Widzialność 10 km lub więcej
Brak chmur poniżej 1500 m i brak chmur cumulonimbus
Przejściowo
od 18 godzina 09 UTC do 18 godzina 12 UTC
Wiatr 10 kt od zachodnio-południowy zachód
Przejściowo
od 18 godzina 12 UTC do 18 godzina 18 UTC
Wiatr 10 kt od wschód

TAF: LFMD 180800Z 1809/1909 VRB02KT CAVOK TEMPO 1809/1812 24010KT TEMPO 1812/1818 09010KT

Obserwacja i prognoza pogody dla ponad 4000 lotnisk (raport METAR i TAF).

Dostępne stacje oznaczono żółtymi i czerwonymi punktami na mapie.

Najedź kursorem aby zobaczyć nazwę stacji.

Kliknij aby zobaczyć obserwacje i prognozy pogody.

Aby zmienić mapę: kliknij na zielony przycisk z czarnym krzyżykiem, aby powiększyć; na zielony przycisk z myślnikiem, aby pomniejszyć; na zielone strzałki, aby przejść do map sąsiednich.


METAR-TAF: